Time;durP1;ratioP1;P1;durP2;ratioP2;P2;SDS_P1;SDS_P2;PMS_P1;PMS_P2;Temp;Humidity;BMP_temperature;BMP_pressure;BME280_temperature;BME280_humidity;BME280_pressure;Samples;Min_cycle;Max_cycle;Signal;HPM_P1;HPM_P2
2021/10/18 00:02:08;;;;;;;11.07;6.28;;;5.90;77.30;;;;;;4976654;28;20034;-89
2021/10/18 00:04:35;;;;;;;13.35;6.55;;;5.80;77.70;;;;;;4994656;28;20129;-88
2021/10/18 00:07:01;;;;;;;14.10;6.82;;;5.70;77.60;;;;;;4976897;28;20158;-88
2021/10/18 00:09:27;;;;;;;13.75;7.60;;;5.60;78.00;;;;;;4960907;28;20071;-88
2021/10/18 00:11:55;;;;;;;13.02;6.43;;;5.60;78.40;;;;;;4994169;28;20034;-88
2021/10/18 00:14:21;;;;;;;12.32;6.68;;;5.60;78.70;;;;;;4977426;28;20137;-88
2021/10/18 00:16:48;;;;;;;12.35;6.55;;;5.60;78.90;;;;;;4961753;28;20035;-86
2021/10/18 00:19:16;;;;;;;12.10;6.63;;;5.60;79.40;;;;;;4977367;28;20030;-89
2021/10/18 00:21:43;;;;;;;11.32;5.80;;;5.70;79.60;;;;;;4977039;28;20038;-87
2021/10/18 00:24:09;;;;;;;10.23;5.72;;;5.70;79.40;;;;;;4995218;28;20040;-88
2021/10/18 00:26:35;;;;;;;11.48;6.28;;;5.80;79.50;;;;;;4995649;28;20145;-88
2021/10/18 00:29:01;;;;;;;12.55;6.72;;;5.90;79.50;;;;;;4976996;28;20076;-89
2021/10/18 00:31:27;;;;;;;10.60;6.55;;;5.90;79.60;;;;;;4960546;28;20042;-88
2021/10/18 00:33:53;;;;;;;11.18;6.13;;;6.10;80.10;;;;;;4976872;28;20055;-88
2021/10/18 00:36:19;;;;;;;12.05;5.57;;;6.10;80.40;;;;;;4976552;28;20030;-88
2021/10/18 00:38:45;;;;;;;10.00;5.95;;;6.20;79.20;;;;;;4976860;28;20547;-88
2021/10/18 00:41:11;;;;;;;13.65;6.15;;;6.30;79.30;;;;;;4976731;28;20034;-89
2021/10/18 00:43:42;;;;;;;9.68;5.90;;;6.40;79.30;;;;;;4976544;28;20026;-87
2021/10/18 00:46:08;;;;;;;;;;;6.40;78.70;;;;;;4977252;28;20022;-86
2021/10/18 00:48:33;;;;;;;10.43;5.63;;;6.50;79.30;;;;;;4994858;28;20261;-87
2021/10/18 00:50:59;;;;;;;10.77;5.88;;;6.50;78.30;;;;;;4979713;28;20527;-86
2021/10/18 00:53:28;;;;;;;10.45;5.93;;;6.60;77.70;;;;;;4964757;28;20038;-88
2021/10/18 00:55:56;;;;;;;10.35;6.20;;;6.60;77.70;;;;;;4964538;28;20129;-87
2021/10/18 00:58:26;;;;;;;9.70;5.88;;;6.70;78.10;;;;;;4980073;28;20030;-87
2021/10/18 01:00:53;;;;;;;11.23;6.30;;;6.70;77.50;;;;;;4994956;28;20027;-86
2021/10/18 01:03:21;;;;;;;10.27;6.40;;;6.80;77.60;;;;;;4971538;28;20117;-87
2021/10/18 01:05:48;;;;;;;10.98;6.20;;;6.80;77.30;;;;;;4960805;28;20031;-86
2021/10/18 01:08:14;;;;;;;9.05;5.53;;;6.80;77.30;;;;;;4961073;28;20029;-87
2021/10/18 01:10:40;;;;;;;9.70;5.30;;;6.90;77.10;;;;;;4978455;28;20062;-87
2021/10/18 01:13:06;;;;;;;9.00;6.03;;;6.90;76.90;;;;;;4978243;28;20051;-87
2021/10/18 01:15:32;;;;;;;10.50;6.13;;;6.90;76.60;;;;;;4960212;28;20126;-87
2021/10/18 01:17:58;;;;;;;11.02;5.93;;;7.00;76.50;;;;;;4977573;28;20038;-88
2021/10/18 01:20:31;;;;;;;10.30;6.38;;;7.00;77.20;;;;;;4960457;28;20031;-86
2021/10/18 01:22:58;;;;;;;10.20;6.20;;;6.90;76.60;;;;;;4961135;28;20508;-87
2021/10/18 01:25:24;;;;;;;10.68;5.75;;;7.00;76.60;;;;;;4960975;28;20027;-86
2021/10/18 01:27:50;;;;;;;12.15;6.72;;;7.00;76.40;;;;;;4961495;28;20045;-87
2021/10/18 01:30:16;;;;;;;11.43;7.15;;;7.00;76.30;;;;;;4978348;28;20030;-88
2021/10/18 01:32:43;;;;;;;12.20;7.18;;;7.00;76.10;;;;;;4978114;28;20034;-87
2021/10/18 01:35:09;;;;;;;12.85;7.93;;;6.90;76.40;;;;;;4960921;28;20450;-87
2021/10/18 01:37:35;;;;;;;14.25;8.55;;;7.00;76.10;;;;;;4960593;28;20031;-87
2021/10/18 01:40:04;;;;;;;11.93;8.35;;;6.90;76.00;;;;;;4960063;28;20101;-88
2021/10/18 01:42:31;;;;;;;13.13;7.50;;;6.90;76.00;;;;;;4960044;28;20081;-87
2021/10/18 01:44:57;;;;;;;12.05;7.38;;;6.90;75.90;;;;;;4978434;28;20026;-87
2021/10/18 01:47:26;;;;;;;11.65;6.95;;;6.80;76.10;;;;;;4960653;28;20077;-87
2021/10/18 01:49:52;;;;;;;10.23;6.10;;;6.80;76.50;;;;;;4960500;28;20023;-88
2021/10/18 01:52:18;;;;;;;13.10;8.25;;;6.70;76.60;;;;;;4960567;28;20026;-87
2021/10/18 01:54:43;;;;;;;17.02;9.48;;;6.70;77.10;;;;;;4960156;28;20073;-88
2021/10/18 01:57:09;;;;;;;15.77;9.68;;;6.60;77.70;;;;;;4960188;28;20429;-88
2021/10/18 01:59:35;;;;;;;13.55;9.18;;;6.60;77.90;;;;;;4960190;28;20417;-88
2021/10/18 02:02:01;;;;;;;13.52;8.40;;;6.60;77.80;;;;;;4964229;28;20053;-88
2021/10/18 02:04:28;;;;;;;12.27;7.43;;;6.50;77.70;;;;;;4959585;28;20027;-88
2021/10/18 02:06:54;;;;;;;10.93;7.30;;;6.60;77.50;;;;;;4959835;28;20122;-87
2021/10/18 02:09:19;;;;;;;10.80;6.43;;;6.50;77.60;;;;;;4959786;28;20460;-86
2021/10/18 02:11:45;;;;;;;9.68;6.18;;;6.50;77.50;;;;;;4963656;28;20047;-87
2021/10/18 02:14:11;;;;;;;12.68;6.85;;;6.50;77.30;;;;;;4961470;28;20050;-87
2021/10/18 02:16:37;;;;;;;11.75;5.68;;;6.40;77.90;;;;;;4977018;28;20122;-87
2021/10/18 02:19:02;;;;;;;10.82;6.50;;;6.40;78.00;;;;;;4959937;28;20027;-87
2021/10/18 02:21:28;;;;;;;9.65;5.90;;;6.40;78.20;;;;;;4977009;28;20033;-86
2021/10/18 02:23:54;;;;;;;10.02;5.70;;;6.40;78.00;;;;;;4976796;28;20114;-86
2021/10/18 02:26:19;;;;;;;10.57;6.07;;;6.40;78.20;;;;;;4959442;28;20461;-85
2021/10/18 02:28:45;;;;;;;9.07;5.65;;;6.30;78.10;;;;;;4959680;28;20465;-87
2021/10/18 02:31:11;;;;;;;11.00;6.20;;;6.40;77.80;;;;;;4959113;28;20034;-86
2021/10/18 02:33:40;;;;;;;8.10;5.55;;;6.30;78.20;;;;;;4960655;28;20023;-85
2021/10/18 02:36:05;;;;;;;12.02;6.63;;;6.30;78.20;;;;;;4966185;28;20473;-84
2021/10/18 02:38:31;;;;;;;9.80;6.35;;;6.30;78.60;;;;;;4965992;28;20030;-85
2021/10/18 02:40:57;;;;;;;12.25;6.53;;;6.30;78.70;;;;;;4962173;28;20503;-88
2021/10/18 02:43:23;;;;;;;10.88;5.82;;;6.30;78.40;;;;;;4959518;28;20022;-88
2021/10/18 02:45:50;;;;;;;10.25;5.47;;;6.30;78.20;;;;;;4958564;28;20473;-88
2021/10/18 02:48:16;;;;;;;9.07;5.45;;;6.30;78.20;;;;;;4959373;28;20027;-87
2021/10/18 02:50:43;;;;;;;9.20;5.13;;;6.30;78.10;;;;;;4958627;28;20042;-88
2021/10/18 02:53:08;;;;;;;12.02;6.22;;;6.30;78.10;;;;;;4959105;28;20026;-88
2021/10/18 02:55:34;;;;;;;10.85;6.25;;;6.30;78.40;;;;;;4976283;28;20094;-89
2021/10/18 02:58:00;;;;;;;11.50;6.50;;;6.30;78.20;;;;;;4959400;28;20027;-88
2021/10/18 03:00:26;;;;;;;8.50;5.25;;;6.30;78.40;;;;;;4958989;28;20037;-89
2021/10/18 03:02:52;;;;;;;11.35;6.97;;;6.30;78.40;;;;;;4943053;28;20421;-88
2021/10/18 03:05:18;;;;;;;12.23;7.10;;;6.30;79.00;;;;;;4991117;28;20081;-88
2021/10/18 03:07:50;;;;;;;11.02;6.57;;;6.30;78.80;;;;;;4995769;28;20030;-86
2021/10/18 03:10:16;;;;;;;10.52;6.53;;;6.30;78.80;;;;;;4977883;28;20084;-86
2021/10/18 03:12:41;;;;;;;11.20;6.38;;;6.30;78.30;;;;;;4977536;28;20030;-86
2021/10/18 03:15:07;;;;;;;10.85;6.47;;;6.30;78.10;;;;;;4995506;28;20030;-86
2021/10/18 03:17:33;;;;;;;10.23;5.90;;;6.30;78.10;;;;;;4977585;28;20473;-86
2021/10/18 03:20:00;;;;;;;10.50;6.15;;;6.30;77.80;;;;;;4977311;28;20549;-86
2021/10/18 03:22:25;;;;;;;9.27;6.38;;;6.30;77.90;;;;;;4995405;28;20031;-85
2021/10/18 03:24:51;;;;;;;10.32;6.13;;;6.30;77.90;;;;;;4977808;28;20161;-85
2021/10/18 03:27:17;;;;;;;10.93;6.32;;;6.30;77.90;;;;;;4977158;28;20487;-86
2021/10/18 03:29:43;;;;;;;14.30;7.50;;;6.20;78.10;;;;;;4995591;28;20023;-85
2021/10/18 03:32:09;;;;;;;13.30;7.57;;;6.20;78.60;;;;;;4978047;28;20057;-84
2021/10/18 03:34:35;;;;;;;13.80;9.23;;;6.20;78.20;;;;;;4978864;28;20050;-85
2021/10/18 03:37:02;;;;;;;16.00;8.85;;;6.20;78.20;;;;;;4979718;28;20026;-84
2021/10/18 03:39:28;;;;;;;15.20;8.02;;;6.20;78.40;;;;;;4977611;28;20117;-84
2021/10/18 03:41:53;;;;;;;12.63;7.60;;;6.20;78.30;;;;;;4977438;28;20054;-84
2021/10/18 03:44:20;;;;;;;12.15;7.20;;;6.20;78.20;;;;;;4977450;28;20070;-84
2021/10/18 03:46:46;;;;;;;10.77;6.57;;;6.10;78.50;;;;;;4976861;28;20089;-84
2021/10/18 03:49:12;;;;;;;10.60;6.38;;;6.10;78.50;;;;;;4994549;28;20031;-84
2021/10/18 03:51:37;;;;;;;10.32;6.22;;;6.10;78.60;;;;;;4977270;28;20543;-84
2021/10/18 03:54:03;;;;;;;11.68;5.88;;;6.10;78.50;;;;;;4977765;28;20531;-85
2021/10/18 03:56:29;;;;;;;11.52;6.20;;;6.10;78.60;;;;;;4977232;28;20026;-85
2021/10/18 03:58:54;;;;;;;12.15;6.15;;;6.10;79.10;;;;;;4977614;28;20545;-84
2021/10/18 04:01:20;;;;;;;10.18;6.28;;;6.10;78.80;;;;;;4976492;28;20038;-85
2021/10/18 04:03:46;;;;;;;11.82;6.50;;;6.10;78.80;;;;;;4994572;28;20035;-85
2021/10/18 04:06:11;;;;;;;11.57;6.38;;;6.10;78.80;;;;;;4994641;28;20468;-85
2021/10/18 04:08:38;;;;;;;10.30;6.55;;;6.10;78.90;;;;;;4994625;28;20037;-86
2021/10/18 04:11:03;;;;;;;10.80;6.35;;;6.10;79.40;;;;;;4994074;28;20428;-87
2021/10/18 04:13:29;;;;;;;10.55;6.78;;;6.10;78.90;;;;;;4976813;28;20058;-88
2021/10/18 04:15:55;;;;;;;15.50;8.85;;;6.10;78.90;;;;;;4960452;28;20492;-85
2021/10/18 04:18:21;;;;;;;20.15;9.75;;;6.10;78.90;;;;;;4976678;28;20019;-86
2021/10/18 04:20:47;;;;;;;25.70;13.48;;;6.10;78.80;;;;;;4976650;28;20041;-86
2021/10/18 04:23:14;;;;;;;33.25;17.40;;;6.10;78.80;;;;;;4993737;28;20384;-86
2021/10/18 04:25:40;;;;;;;43.50;20.52;;;6.20;78.90;;;;;;4976633;28;20031;-86
2021/10/18 04:28:06;;;;;;;46.17;21.70;;;6.20;78.90;;;;;;4975861;28;20041;-85
2021/10/18 04:30:34;;;;;;;57.33;26.30;;;6.20;78.80;;;;;;4976619;28;20159;-84
2021/10/18 04:33:00;;;;;;;71.72;28.95;;;6.20;78.90;;;;;;4978960;28;20034;-85
2021/10/18 04:35:26;;;;;;;64.25;28.48;;;6.20;79.60;;;;;;4978611;28;20033;-87
2021/10/18 04:37:51;;;;;;;60.63;25.30;;;6.20;79.00;;;;;;4994567;28;20063;-86
2021/10/18 04:40:17;;;;;;;62.97;27.33;;;6.20;79.10;;;;;;4994629;28;20041;-85
2021/10/18 04:42:44;;;;;;;52.83;24.30;;;6.20;78.90;;;;;;4997920;28;20449;-87
2021/10/18 04:45:10;;;;;;;47.00;20.95;;;6.30;78.90;;;;;;4980692;28;20034;-88
2021/10/18 04:47:48;;;;;;;44.33;21.80;;;6.30;78.90;;;;;;4977416;28;20491;-89
2021/10/18 04:50:15;;;;;;;44.72;20.13;;;6.30;79.00;;;;;;4974838;28;20401;-86
2021/10/18 04:52:41;;;;;;;40.88;20.35;;;6.30;78.90;;;;;;4976407;28;20120;-88
2021/10/18 04:55:08;;;;;;;36.33;18.85;;;6.30;78.80;;;;;;4976813;28;20121;-88
2021/10/18 04:58:02;;;;;;;34.45;16.73;;;6.40;79.30;;;;;;4960298;28;20078;-88
2021/10/18 05:00:35;;;;;;;29.08;14.48;;;6.40;78.80;;;;;;4993967;28;20034;-89
2021/10/18 05:03:01;;;;;;;25.30;12.95;;;6.40;78.60;;;;;;4977182;28;20492;-89
2021/10/18 05:05:28;;;;;;;20.58;11.32;;;6.40;78.50;;;;;;4975871;28;20038;-87
2021/10/18 05:08:05;;;;;;;18.95;10.75;;;6.50;78.50;;;;;;4976471;28;20030;-89
2021/10/18 05:10:32;;;;;;;17.63;10.05;;;6.50;78.40;;;;;;4976795;28;20042;-90
2021/10/18 05:12:58;;;;;;;16.40;9.65;;;6.50;78.40;;;;;;4973562;28;20051;-89
2021/10/18 05:15:25;;;;;;;17.55;9.68;;;6.50;78.50;;;;;;4972836;28;20109;-87
2021/10/18 05:17:51;;;;;;;16.25;9.70;;;6.50;78.40;;;;;;4993603;28;20049;-84
2021/10/18 05:20:17;;;;;;;20.33;11.70;;;6.60;78.40;;;;;;4976051;28;20026;-90
2021/10/18 05:22:44;;;;;;;24.67;12.90;;;6.70;78.10;;;;;;4976986;28;20113;-89
2021/10/18 05:25:12;;;;;;;23.98;14.38;;;6.70;78.00;;;;;;4976662;28;20045;-87
2021/10/18 05:27:38;;;;;;;23.63;11.80;;;6.80;77.90;;;;;;4976407;28;20031;-85
2021/10/18 05:30:06;;;;;;;21.33;10.98;;;6.80;77.70;;;;;;4976047;28;20030;-87
2021/10/18 05:32:32;;;;;;;18.77;10.63;;;6.90;77.50;;;;;;4976528;28;20094;-87
2021/10/18 05:34:58;;;;;;;18.58;10.15;;;7.00;77.30;;;;;;4963911;28;20039;-89
2021/10/18 05:37:23;;;;;;;17.05;10.40;;;7.00;77.20;;;;;;4980398;28;20033;-87
2021/10/18 05:39:49;;;;;;;16.27;9.23;;;7.10;76.90;;;;;;4979751;28;20113;-90
2021/10/18 05:42:15;;;;;;;16.17;9.00;;;7.10;76.80;;;;;;4978294;28;20034;-88
2021/10/18 05:44:41;;;;;;;14.27;8.75;;;7.10;76.50;;;;;;4979786;28;20073;-87
2021/10/18 05:47:06;;;;;;;15.05;8.77;;;7.20;76.50;;;;;;4996671;28;20053;-90
2021/10/18 05:49:33;;;;;;;15.50;9.85;;;7.20;76.40;;;;;;4980234;28;20037;-89
2021/10/18 05:52:01;;;;;;;16.13;8.25;;;7.20;76.10;;;;;;4979334;28;20038;-90
2021/10/18 05:54:27;;;;;;;14.45;8.13;;;7.30;76.00;;;;;;4980723;28;20034;-89
2021/10/18 05:56:53;;;;;;;15.50;8.65;;;7.30;75.80;;;;;;4979522;28;20026;-89
2021/10/18 05:59:19;;;;;;;14.23;8.65;;;7.30;75.70;;;;;;4979169;28;20033;-89
2021/10/18 06:01:44;;;;;;;20.02;10.82;;;7.40;75.70;;;;;;4996750;28;20105;-89
2021/10/18 06:04:10;;;;;;;17.65;10.38;;;7.40;75.50;;;;;;4978934;28;20032;-87
2021/10/18 06:06:36;;;;;;;16.58;9.38;;;7.40;75.50;;;;;;4978871;28;20113;-89
2021/10/18 06:09:05;;;;;;;19.40;10.20;;;7.50;75.30;;;;;;4997847;28;20045;-87
2021/10/18 06:11:32;;;;;;;14.43;8.70;;;7.60;75.40;;;;;;4977818;28;20097;-86
2021/10/18 06:13:58;;;;;;;14.43;8.38;;;7.70;75.40;;;;;;4970886;28;20081;-86
2021/10/18 06:16:24;;;;;;;14.13;8.52;;;7.80;75.60;;;;;;4994646;28;20034;-88
2021/10/18 06:18:50;;;;;;;16.35;9.23;;;7.80;74.70;;;;;;4995972;28;20034;-87
2021/10/18 06:21:16;;;;;;;22.77;9.60;;;7.90;74.20;;;;;;4995052;28;20121;-87
2021/10/18 06:23:43;;;;;;;22.17;11.27;;;7.90;73.80;;;;;;4994506;28;20026;-87
2021/10/18 06:26:10;;;;;;;17.00;9.55;;;7.90;73.50;;;;;;4993894;28;20453;-87
2021/10/18 06:28:39;;;;;;;17.10;9.52;;;8.00;73.80;;;;;;4994194;28;20121;-88
2021/10/18 06:31:06;;;;;;;14.77;8.18;;;8.00;74.50;;;;;;4994631;28;20065;-87
2021/10/18 06:33:31;;;;;;;18.15;9.55;;;8.10;73.80;;;;;;4995265;28;20695;-86
2021/10/18 06:35:57;;;;;;;16.10;8.63;;;8.10;73.40;;;;;;4997712;28;20033;-86
2021/10/18 06:38:24;;;;;;;16.73;8.98;;;8.20;73.30;;;;;;4997415;28;20117;-85
2021/10/18 06:40:50;;;;;;;14.82;8.43;;;8.40;73.20;;;;;;4999310;28;20045;-85
2021/10/18 06:43:18;;;;;;;13.00;7.22;;;8.50;72.50;;;;;;5001851;28;20030;-85
2021/10/18 06:45:44;;;;;;;14.18;7.47;;;8.70;72.30;;;;;;4994584;28;20121;-84
2021/10/18 06:48:10;;;;;;;13.68;7.43;;;8.80;71.80;;;;;;4995205;28;20027;-86
2021/10/18 06:50:40;;;;;;;11.90;7.10;;;8.80;71.50;;;;;;4994723;28;20193;-86
2021/10/18 06:53:11;;;;;;;12.23;6.60;;;8.90;70.80;;;;;;4995345;28;20053;-87
2021/10/18 06:55:37;;;;;;;;;;;9.00;70.60;;;;;;4996411;28;20058;-87
2021/10/18 06:58:03;;;;;;;11.45;6.55;;;9.00;70.50;;;;;;4995239;28;19976;-86
2021/10/18 07:00:29;;;;;;;12.95;7.13;;;9.10;70.70;;;;;;4994718;28;20026;-88
2021/10/18 07:02:54;;;;;;;12.70;7.25;;;9.20;69.80;;;;;;4994487;28;20045;-88
2021/10/18 07:05:21;;;;;;;11.90;6.57;;;9.20;69.50;;;;;;4994815;28;20038;-87
2021/10/18 07:07:47;;;;;;;12.00;6.35;;;9.30;69.30;;;;;;4994400;28;20027;-87
2021/10/18 07:10:13;;;;;;;10.18;5.70;;;9.40;69.30;;;;;;4994768;28;20049;-88
2021/10/18 07:12:42;;;;;;;11.45;6.63;;;9.50;69.30;;;;;;4995585;28;20034;-88
2021/10/18 07:15:09;;;;;;;13.20;7.82;;;9.60;68.60;;;;;;4999175;28;20479;-90
2021/10/18 07:17:35;;;;;;;14.05;7.22;;;9.80;68.20;;;;;;4998412;28;20054;-88
2021/10/18 07:20:06;;;;;;;14.18;6.82;;;10.00;67.60;;;;;;4998165;28;20049;-89
2021/10/18 07:22:44;;;;;;;12.43;6.38;;;10.20;67.50;;;;;;4997583;28;20026;-88
2021/10/18 07:25:14;;;;;;;11.25;6.50;;;10.30;67.40;;;;;;4998791;28;20388;-87
2021/10/18 07:27:43;;;;;;;10.82;5.95;;;10.50;66.80;;;;;;5015702;28;20033;-88
2021/10/18 07:30:09;;;;;;;10.00;5.72;;;10.70;66.30;;;;;;4997615;28;20062;-88
2021/10/18 07:32:36;;;;;;;12.30;7.00;;;10.70;65.70;;;;;;4998045;28;20022;-89
2021/10/18 07:35:15;;;;;;;12.00;6.47;;;10.70;64.80;;;;;;5015874;28;20511;-90
2021/10/18 07:37:44;;;;;;;10.10;5.97;;;10.60;64.20;;;;;;4998349;28;20057;-90
2021/10/18 07:40:13;;;;;;;10.38;5.57;;;10.50;65.20;;;;;;4998179;28;20495;-89
2021/10/18 07:42:39;;;;;;;13.15;5.93;;;10.50;65.30;;;;;;4997250;28;20479;-89
2021/10/18 07:45:09;;;;;;;11.23;5.60;;;10.70;65.00;;;;;;5013824;28;20054;-88
2021/10/18 07:47:35;;;;;;;12.10;6.43;;;10.70;64.40;;;;;;4995811;28;20026;-88
2021/10/18 07:50:02;;;;;;;8.68;5.40;;;10.80;63.90;;;;;;4996508;28;20475;-90
2021/10/18 07:52:27;;;;;;;10.82;6.32;;;10.90;64.00;;;;;;4996932;28;20172;-89
2021/10/18 07:55:00;;;;;;;11.38;6.32;;;10.90;63.50;;;;;;4997820;28;20065;-89
2021/10/18 07:57:30;;;;;;;10.93;5.82;;;11.00;63.20;;;;;;5014756;28;20037;-89
2021/10/18 07:59:56;;;;;;;11.90;7.00;;;11.00;62.40;;;;;;4997466;28;20384;-89
2021/10/18 08:02:21;;;;;;;13.60;6.60;;;11.00;62.10;;;;;;4996966;28;20070;-90
2021/10/18 08:04:53;;;;;;;11.90;6.03;;;11.10;60.90;;;;;;4995965;28;20018;-89
2021/10/18 08:07:25;;;;;;;10.07;5.75;;;11.10;60.70;;;;;;5010568;28;20025;-92
2021/10/18 08:09:51;;;;;;;9.25;5.78;;;11.10;60.60;;;;;;5002576;28;20120;-93
2021/10/18 08:12:17;;;;;;;10.10;5.35;;;11.10;60.40;;;;;;4997813;28;20128;-88
2021/10/18 08:14:42;;;;;;;11.18;5.20;;;11.20;60.70;;;;;;4997388;28;20100;-93
2021/10/18 08:17:08;;;;;;;8.50;4.97;;;11.30;60.30;;;;;;4998793;28;20026;-92
2021/10/18 08:19:34;;;;;;;10.55;5.20;;;11.40;60.20;;;;;;5013391;28;20484;-90
2021/10/18 08:21:59;;;;;;;8.80;5.03;;;11.40;59.60;;;;;;4994647;28;20037;-90
2021/10/18 08:24:25;;;;;;;7.95;4.63;;;11.40;60.10;;;;;;4997625;28;20022;-89
2021/10/18 08:26:51;;;;;;;7.13;4.28;;;11.50;60.30;;;;;;4997460;28;20026;-89
2021/10/18 08:29:17;;;;;;;7.88;4.53;;;11.60;60.10;;;;;;4997223;28;20384;-89
2021/10/18 08:31:42;;;;;;;5.93;4.20;;;11.70;60.40;;;;;;5013641;28;20080;-89
2021/10/18 08:34:11;;;;;;;7.28;4.57;;;11.80;60.00;;;;;;5018603;28;20485;-86
2021/10/18 08:36:40;;;;;;;9.65;4.95;;;11.90;59.90;;;;;;5001332;28;20022;-90
2021/10/18 08:41:43;;;;;;;8.18;4.25;;;12.10;59.40;;;;;;5014087;28;20088;-92
2021/10/18 08:44:15;;;;;;;5.97;3.60;;;12.30;58.80;;;;;;4996913;28;20129;-91
2021/10/18 08:46:41;;;;;;;6.47;3.65;;;12.40;58.70;;;;;;4996320;28;20037;-92
2021/10/18 08:49:08;;;;;;;11.07;4.53;;;12.50;58.70;;;;;;4998964;28;20503;-90
2021/10/18 08:51:34;;;;;;;6.78;4.30;;;12.70;58.70;;;;;;4998172;28;20038;-92
2021/10/18 08:54:00;;;;;;;9.13;4.85;;;12.80;58.00;;;;;;5011150;28;20046;-92
2021/10/18 08:56:29;;;;;;;8.15;4.60;;;13.00;57.10;;;;;;4995863;28;20108;-91
2021/10/18 08:58:57;;;;;;;7.97;4.32;;;13.10;56.70;;;;;;4996316;28;20693;-93
2021/10/18 09:01:39;;;;;;;8.88;4.53;;;13.20;56.60;;;;;;4993611;28;20049;-92
2021/10/18 09:04:27;;;;;;;7.80;4.47;;;13.40;54.50;;;;;;4991215;28;20026;-92
2021/10/18 09:06:57;;;;;;;9.13;5.47;;;13.50;56.00;;;;;;4996210;28;20029;-92
2021/10/18 09:09:24;;;;;;;9.07;5.15;;;13.60;56.10;;;;;;4994655;28;20054;-91
2021/10/18 09:11:56;;;;;;;12.38;5.25;;;13.80;56.50;;;;;;5017272;28;20440;-92
2021/10/18 09:14:22;;;;;;;10.15;4.75;;;14.10;55.50;;;;;;4998447;28;20056;-91
2021/10/18 09:16:51;;;;;;;9.68;4.53;;;14.30;54.70;;;;;;5018215;28;20049;-90
2021/10/18 09:19:22;;;;;;;7.30;4.32;;;14.50;54.50;;;;;;5002678;28;20029;-92
2021/10/18 09:21:52;;;;;;;;;;;14.70;54.90;;;;;;4999817;28;20029;-93
2021/10/18 09:24:31;;;;;;;7.25;3.88;;;14.90;52.10;;;;;;5016995;28;19905;-93
2021/10/18 09:27:01;;;;;;;5.97;3.78;;;15.00;53.50;;;;;;4999720;28;20611;-91
2021/10/18 09:29:49;;;;;;;8.02;4.22;;;15.10;53.00;;;;;;4999734;28;20030;-90
2021/10/18 09:32:29;;;;;;;8.38;4.53;;;15.20;52.80;;;;;;4996851;28;20033;-90
2021/10/18 09:35:05;;;;;;;9.15;4.43;;;15.10;51.60;;;;;;5000901;28;20116;-92
2021/10/18 09:37:38;;;;;;;7.43;4.40;;;14.90;51.90;;;;;;5001513;28;20094;-88
2021/10/18 09:40:04;;;;;;;6.95;4.43;;;14.50;52.40;;;;;;5000500;28;20034;-89
2021/10/18 09:42:30;;;;;;;7.75;4.75;;;14.20;53.00;;;;;;4999487;28;20033;-90
2021/10/18 09:45:43;;;;;;;6.75;4.50;;;14.00;53.40;;;;;;5001005;28;20030;-90
2021/10/18 10:53:43;;;;;;;12.30;6.50;;;12.60;56.50;;;;;;5016319;28;20030;-86
2021/10/18 10:56:47;;;;;;;9.88;5.90;;;12.40;56.70;;;;;;4980572;28;20416;-86
2021/10/18 10:59:18;;;;;;;7.70;4.97;;;12.20;57.20;;;;;;4998034;28;20475;-85
2021/10/18 11:01:50;;;;;;;10.02;6.03;;;12.10;57.40;;;;;;4999771;28;20424;-86
2021/10/18 11:04:35;;;;;;;8.23;5.25;;;12.00;57.50;;;;;;4999810;28;20149;-86
2021/10/18 11:07:14;;;;;;;7.70;4.38;;;11.90;57.70;;;;;;4998419;28;20117;-86
2021/10/18 11:09:57;;;;;;;7.50;4.82;;;11.80;58.00;;;;;;4998706;28;20049;-84
2021/10/18 11:12:42;;;;;;;10.02;4.70;;;11.80;58.20;;;;;;5016447;28;20034;-84
2021/10/18 11:15:17;;;;;;;8.10;4.80;;;11.70;58.30;;;;;;4999196;28;20030;-83
2021/10/18 11:17:54;;;;;;;7.13;4.03;;;11.70;58.60;;;;;;4999198;28;20025;-84
2021/10/18 11:20:22;;;;;;;7.45;4.47;;;11.70;58.80;;;;;;4997647;28;20112;-85
2021/10/18 11:23:03;;;;;;;8.18;4.38;;;11.70;58.70;;;;;;5015290;28;20014;-86
2021/10/18 11:25:33;;;;;;;8.00;4.50;;;11.70;58.80;;;;;;4998067;28;20041;-85
2021/10/18 11:28:04;;;;;;;9.57;5.32;;;11.70;59.50;;;;;;5017727;28;20515;-85
2021/10/18 11:30:32;;;;;;;7.68;4.50;;;11.80;59.00;;;;;;4998706;28;20120;-85
2021/10/18 11:33:11;;;;;;;8.48;4.47;;;11.90;58.90;;;;;;4996720;28;20034;-86
2021/10/18 11:35:38;;;;;;;7.45;4.50;;;12.00;59.00;;;;;;4997183;28;20101;-85
2021/10/18 11:38:11;;;;;;;10.00;6.07;;;12.10;59.00;;;;;;5014744;28;20452;-85
2021/10/18 11:40:48;;;;;;;9.23;5.18;;;12.20;58.90;;;;;;4997428;28;20056;-85
2021/10/18 11:43:15;;;;;;;10.02;5.45;;;12.40;59.40;;;;;;4997176;28;20022;-87
2021/10/18 11:45:47;;;;;;;7.53;5.00;;;12.60;58.50;;;;;;5014497;28;20444;-85
2021/10/18 11:48:21;;;;;;;6.20;4.20;;;12.80;58.40;;;;;;4997118;28;20025;-86
2021/10/18 11:50:54;;;;;;;9.38;4.85;;;13.00;58.30;;;;;;4997343;28;20041;-86
2021/10/18 11:53:23;;;;;;;10.05;4.80;;;13.20;57.70;;;;;;4996967;28;20112;-86
2021/10/18 11:55:52;;;;;;;8.50;5.47;;;13.40;57.00;;;;;;5014610;28;20049;-86
2021/10/18 11:58:23;;;;;;;7.05;4.97;;;13.50;56.40;;;;;;5015136;28;20022;-84
2021/10/18 12:01:06;;;;;;;6.32;4.35;;;13.40;56.20;;;;;;4997578;28;20072;-86
2021/10/18 12:03:34;;;;;;;10.18;6.50;;;13.50;56.20;;;;;;4997211;28;20032;-85
2021/10/18 12:06:04;;;;;;;9.77;5.53;;;13.40;56.40;;;;;;4996822;28;20368;-86
2021/10/18 12:08:31;;;;;;;7.25;4.65;;;13.30;56.20;;;;;;5014323;28;20136;-86
2021/10/18 12:10:59;;;;;;;7.30;4.25;;;13.30;56.50;;;;;;4996585;28;20372;-84
2021/10/18 12:13:26;;;;;;;7.10;4.40;;;13.20;56.80;;;;;;4996665;28;20471;-86
2021/10/18 12:15:58;;;;;;;7.10;4.10;;;13.10;56.70;;;;;;4996436;28;20022;-85
2021/10/18 12:18:29;;;;;;;7.82;4.47;;;13.00;57.00;;;;;;4996602;28;20112;-86
2021/10/18 12:21:03;;;;;;;10.00;4.50;;;12.90;57.10;;;;;;4996835;28;20476;-85
2021/10/18 12:23:56;;;;;;;7.05;4.15;;;12.80;57.20;;;;;;4996661;28;20022;-87
2021/10/18 12:26:28;;;;;;;7.18;4.20;;;12.70;57.60;;;;;;4988914;28;20037;-85
2021/10/18 12:28:54;;;;;;;6.45;4.13;;;12.60;57.70;;;;;;4997036;28;20022;-85
2021/10/18 12:31:27;;;;;;;10.30;5.50;;;12.60;57.90;;;;;;4996388;28;20543;-85
2021/10/18 12:34:05;;;;;;;8.85;5.88;;;12.50;57.40;;;;;;4996441;28;20029;-85
2021/10/18 12:36:32;;;;;;;9.50;5.88;;;12.40;57.30;;;;;;5014089;28;20427;-86
2021/10/18 12:39:01;;;;;;;8.73;5.60;;;12.40;57.50;;;;;;5013945;28;20036;-86
2021/10/18 12:41:27;;;;;;;9.90;5.53;;;12.40;57.60;;;;;;5013834;28;20026;-85
2021/10/18 12:43:53;;;;;;;8.85;5.80;;;12.40;57.50;;;;;;4998894;28;20117;-84
2021/10/18 12:46:26;;;;;;;8.48;5.65;;;12.30;57.50;;;;;;5018107;28;20014;-85
2021/10/18 12:49:03;;;;;;;10.25;5.85;;;12.30;57.60;;;;;;5000409;28;20025;-85
2021/10/18 12:51:39;;;;;;;8.15;5.45;;;12.20;57.70;;;;;;5018040;28;20471;-85
2021/10/18 12:54:26;;;;;;;9.07;5.30;;;12.10;57.90;;;;;;5003669;28;20107;-85
2021/10/18 12:57:08;;;;;;;8.43;4.93;;;12.10;58.10;;;;;;5001365;28;20026;-86
2021/10/18 12:59:37;;;;;;;10.27;5.30;;;12.10;58.30;;;;;;4999909;28;20022;-86
2021/10/18 13:02:18;;;;;;;11.52;6.10;;;12.00;58.30;;;;;;5000023;28;20436;-87
2021/10/18 13:05:19;;;;;;;9.25;5.13;;;12.00;58.40;;;;;;5000001;28;20456;-86
2021/10/18 13:07:54;;;;;;;9.80;4.90;;;12.00;58.60;;;;;;4969309;28;20037;-86
2021/10/18 13:10:21;;;;;;;8.68;5.32;;;12.00;58.60;;;;;;5000511;28;20044;-86
2021/10/18 13:12:48;;;;;;;11.13;5.65;;;12.00;58.60;;;;;;5017554;28;20041;-85
2021/10/18 13:15:16;;;;;;;8.50;4.95;;;12.00;58.60;;;;;;5000309;28;20036;-87
2021/10/18 13:17:43;;;;;;;10.23;5.45;;;12.10;58.80;;;;;;5000140;28;20367;-86
2021/10/18 13:20:09;;;;;;;8.23;4.90;;;12.10;58.80;;;;;;5017811;28;20109;-85
2021/10/18 13:22:36;;;;;;;8.68;5.22;;;12.20;58.90;;;;;;5017599;28;20518;-86
2021/10/18 13:25:03;;;;;;;9.05;5.85;;;12.20;58.70;;;;;;5017726;28;20030;-85
2021/10/18 13:27:31;;;;;;;9.15;5.88;;;12.30;58.50;;;;;;4999597;28;20025;-86
2021/10/18 13:29:57;;;;;;;9.57;6.10;;;12.30;58.60;;;;;;4999613;28;20058;-85
2021/10/18 13:32:22;;;;;;;10.10;5.28;;;12.30;58.40;;;;;;4999473;28;20029;-86
2021/10/18 13:34:48;;;;;;;9.98;6.13;;;12.30;58.50;;;;;;4999370;28;20029;-86
2021/10/18 13:37:14;;;;;;;13.23;6.50;;;12.30;58.40;;;;;;5016954;28;20356;-85
2021/10/18 13:39:41;;;;;;;9.20;5.90;;;12.20;58.30;;;;;;5016993;28;20472;-86
2021/10/18 13:42:07;;;;;;;9.77;5.63;;;12.20;58.40;;;;;;4998956;28;20030;-85
2021/10/18 13:44:34;;;;;;;8.25;4.65;;;12.10;58.60;;;;;;4999156;28;20033;-85
2021/10/18 13:47:00;;;;;;;10.55;5.60;;;12.10;58.70;;;;;;4999020;28;20029;-85
2021/10/18 13:49:26;;;;;;;10.32;5.90;;;12.00;58.90;;;;;;4999054;28;20029;-85
2021/10/18 13:51:52;;;;;;;9.60;5.95;;;12.00;58.90;;;;;;5016733;28;20030;-84
2021/10/18 13:54:17;;;;;;;11.85;6.15;;;11.90;59.00;;;;;;4999163;28;20030;-85
2021/10/18 13:56:43;;;;;;;10.57;5.50;;;11.90;59.00;;;;;;4998806;28;20026;-86
2021/10/18 13:59:09;;;;;;;10.00;5.75;;;11.80;59.10;;;;;;4998910;28;20018;-85
2021/10/18 14:01:35;;;;;;;11.05;6.35;;;11.80;59.20;;;;;;4998814;28;20053;-85